createdAt,value
2023-11-15T00:01:26.395Z,1.90
2023-11-15T00:03:53.837Z,1.40
2023-11-15T00:06:21.242Z,1.63
2023-11-15T00:08:48.460Z,1.83
2023-11-15T00:11:17.156Z,1.50
2023-11-15T00:13:44.403Z,2.30
2023-11-15T00:16:11.618Z,1.50
2023-11-15T00:18:38.999Z,1.73
2023-11-15T00:21:06.952Z,1.35
2023-11-15T00:23:36.372Z,1.60
2023-11-15T00:26:04.222Z,1.55
2023-11-15T00:28:31.249Z,1.30
2023-11-15T00:30:59.365Z,1.40
2023-11-15T00:33:26.659Z,1.70
2023-11-15T00:35:53.924Z,1.75
2023-11-15T00:38:21.072Z,2.20
2023-11-15T00:40:48.055Z,1.35
2023-11-15T00:43:16.930Z,1.60
2023-11-15T00:45:44.015Z,1.27
2023-11-15T00:48:11.231Z,1.30
2023-11-15T00:50:38.538Z,1.58
2023-11-15T00:53:06.125Z,1.63
2023-11-15T00:55:33.071Z,1.67
2023-11-15T00:58:00.634Z,1.73
2023-11-15T01:00:28.669Z,1.30
2023-11-15T01:02:57.453Z,1.80
2023-11-15T01:05:25.806Z,1.85
2023-11-15T01:07:53.152Z,2.42
2023-11-15T01:10:20.665Z,1.38
2023-11-15T01:12:48.039Z,1.42
2023-11-15T01:15:16.135Z,1.80
2023-11-15T01:17:43.241Z,1.67
2023-11-15T01:20:10.850Z,1.20
2023-11-15T01:22:39.866Z,2.00
2023-11-15T01:25:07.917Z,1.55
2023-11-15T01:27:35.790Z,1.48
2023-11-15T01:30:03.338Z,1.48
2023-11-15T01:32:31.334Z,1.30
2023-11-15T01:34:58.366Z,1.58
2023-11-15T01:37:25.338Z,1.67
2023-11-15T01:39:52.668Z,1.17
2023-11-15T01:42:19.832Z,1.67
2023-11-15T01:44:47.015Z,1.80
2023-11-15T01:47:15.748Z,1.60
2023-11-15T01:49:43.064Z,1.75
2023-11-15T01:52:10.922Z,1.92
2023-11-15T01:54:38.160Z,1.75
2023-11-15T01:57:05.444Z,1.80
2023-11-15T01:59:32.939Z,1.67
2023-11-15T02:02:00.214Z,1.73
2023-11-15T02:04:27.366Z,1.98
2023-11-15T02:06:54.723Z,1.65
2023-11-15T02:09:22.855Z,1.65
2023-11-15T02:11:49.891Z,1.38
2023-11-15T02:14:17.910Z,1.10
2023-11-15T02:16:45.937Z,1.45
2023-11-15T02:19:13.385Z,1.30
2023-11-15T02:21:40.422Z,1.13
2023-11-15T02:24:08.187Z,1.38
2023-11-15T02:26:35.277Z,1.13
2023-11-15T02:29:02.385Z,2.53
2023-11-15T02:31:29.353Z,1.30
2023-11-15T02:33:56.367Z,1.35
2023-11-15T02:36:23.365Z,1.40
2023-11-15T02:38:50.513Z,1.13
2023-11-15T02:41:17.525Z,1.58
2023-11-15T02:43:44.502Z,1.33
2023-11-15T02:46:11.595Z,0.95
2023-11-15T02:48:38.634Z,1.13
2023-11-15T02:51:06.173Z,1.20
2023-11-15T02:53:33.947Z,1.05
2023-11-15T02:56:00.957Z,1.48
2023-11-15T02:58:27.920Z,1.20
2023-11-15T03:00:55.169Z,1.27
2023-11-15T03:03:22.334Z,1.15
2023-11-15T03:05:49.715Z,1.08
2023-11-15T03:08:19.781Z,0.93
2023-11-15T03:10:47.402Z,1.30
2023-11-15T03:13:14.428Z,1.10
2023-11-15T03:15:41.448Z,1.10
2023-11-15T03:18:08.517Z,1.20
2023-11-15T03:20:36.016Z,1.00
2023-11-15T03:23:03.096Z,1.63
2023-11-15T03:25:30.289Z,1.30
2023-11-15T03:27:57.907Z,0.90
2023-11-15T03:30:25.119Z,1.75
2023-11-15T03:32:52.331Z,1.00
2023-11-15T03:35:23.608Z,1.40
2023-11-15T03:37:51.514Z,1.10
2023-11-15T03:40:20.977Z,2.17
2023-11-15T03:42:48.673Z,1.20
2023-11-15T03:45:16.225Z,1.20
2023-11-15T03:47:43.333Z,1.42
2023-11-15T03:50:10.574Z,1.60
2023-11-15T03:52:37.545Z,1.52
2023-11-15T03:55:04.887Z,1.63
2023-11-15T03:57:32.204Z,1.42
2023-11-15T04:00:00.630Z,1.10
2023-11-15T04:02:30.967Z,1.48
2023-11-15T04:04:58.200Z,1.13
2023-11-15T04:07:27.646Z,1.83
2023-11-15T04:09:54.928Z,1.58
2023-11-15T04:12:22.910Z,1.27
2023-11-15T04:14:50.156Z,0.80
2023-11-15T04:17:18.817Z,1.20
2023-11-15T04:19:45.816Z,1.20
2023-11-15T04:22:14.355Z,1.15
2023-11-15T04:24:42.281Z,0.90
2023-11-15T04:27:09.278Z,1.15
2023-11-15T04:29:39.055Z,1.25
2023-11-15T04:32:06.736Z,0.93
2023-11-15T04:34:33.953Z,1.30
2023-11-15T04:37:01.522Z,1.23
2023-11-15T04:39:29.277Z,1.92
2023-11-15T04:41:56.417Z,1.13
2023-11-15T04:44:24.557Z,1.20
2023-11-15T04:46:52.256Z,1.08
2023-11-15T04:49:21.493Z,0.95
2023-11-15T04:51:49.186Z,0.93
2023-11-15T04:54:16.139Z,0.75
2023-11-15T04:56:43.191Z,0.70
2023-11-15T04:59:10.873Z,1.00
2023-11-15T05:01:39.004Z,0.88
2023-11-15T05:04:06.510Z,0.88
2023-11-15T05:06:34.252Z,0.90
2023-11-15T05:09:01.448Z,1.17
2023-11-15T05:11:28.448Z,1.15
2023-11-15T05:13:55.431Z,0.85
2023-11-15T05:16:22.486Z,0.77
2023-11-15T05:18:49.577Z,0.90
2023-11-15T05:21:16.816Z,0.63
2023-11-15T05:23:43.865Z,1.05
2023-11-15T05:26:10.848Z,0.85
2023-11-15T05:28:38.033Z,0.80
2023-11-15T05:31:05.218Z,0.80
2023-11-15T05:33:32.277Z,0.80
2023-11-15T05:35:59.438Z,0.80
2023-11-15T05:38:26.441Z,1.10
2023-11-15T05:40:53.770Z,0.77
2023-11-15T05:43:21.272Z,0.80
2023-11-15T05:45:48.777Z,0.75
2023-11-15T05:48:16.084Z,0.70
2023-11-15T05:50:43.461Z,0.75
2023-11-15T05:53:10.605Z,1.63
2023-11-15T05:55:37.657Z,0.93
2023-11-15T05:58:05.936Z,1.73
2023-11-15T06:00:33.232Z,1.75
2023-11-15T06:03:01.460Z,1.17
2023-11-15T06:05:30.663Z,1.65
2023-11-15T06:07:57.766Z,1.60
2023-11-15T06:10:28.178Z,1.63
2023-11-15T06:12:58.086Z,1.30
2023-11-15T06:15:25.441Z,1.20
2023-11-15T06:17:53.642Z,1.17
2023-11-15T06:20:20.706Z,1.20
2023-11-15T06:22:48.205Z,1.88
2023-11-15T06:25:22.936Z,1.52
2023-11-15T06:27:50.106Z,1.35
2023-11-15T06:30:18.097Z,1.67
2023-11-15T06:32:46.242Z,1.40
2023-11-15T06:35:20.139Z,1.35
2023-11-15T06:37:48.565Z,1.20
2023-11-15T06:40:19.784Z,1.23
2023-11-15T06:42:47.202Z,1.17
2023-11-15T06:45:14.607Z,1.73
2023-11-15T06:47:44.637Z,1.48
2023-11-15T06:50:11.852Z,1.70
2023-11-15T06:52:41.847Z,1.45
2023-11-15T06:55:12.378Z,2.28
2023-11-15T06:57:42.751Z,1.60
2023-11-15T07:00:12.354Z,1.60
2023-11-15T07:02:42.373Z,2.17
2023-11-15T07:05:11.752Z,1.50
2023-11-15T07:07:39.077Z,1.45
2023-11-15T07:10:07.122Z,1.20
2023-11-15T07:12:39.898Z,1.30
2023-11-15T07:15:14.465Z,1.55
2023-11-15T07:17:42.197Z,1.77
2023-11-15T07:20:11.376Z,1.00
2023-11-15T07:22:40.819Z,1.35
2023-11-15T07:25:14.222Z,1.33
2023-11-15T07:27:41.272Z,1.25
2023-11-15T07:30:09.659Z,1.00
2023-11-15T07:32:39.030Z,1.13
2023-11-15T07:35:07.034Z,1.30
2023-11-15T07:37:35.950Z,1.00
2023-11-15T07:40:04.437Z,1.25
2023-11-15T07:42:33.644Z,0.80
2023-11-15T07:45:03.440Z,1.60
2023-11-15T07:47:30.787Z,1.30
2023-11-15T07:50:00.236Z,1.30
2023-11-15T07:52:28.907Z,1.25
2023-11-15T07:54:57.836Z,1.20
2023-11-15T07:57:26.437Z,1.25
2023-11-15T07:59:53.750Z,0.93
2023-11-15T08:02:20.819Z,1.02
2023-11-15T08:04:47.843Z,0.90
2023-11-15T08:07:14.935Z,1.70
2023-11-15T08:09:42.428Z,1.13
2023-11-15T08:12:10.672Z,1.30
2023-11-15T08:14:37.837Z,1.30
2023-11-15T08:17:05.253Z,1.02
2023-11-15T08:19:32.296Z,1.60
2023-11-15T08:21:59.316Z,1.40
2023-11-15T08:24:27.962Z,1.10
2023-11-15T08:26:57.501Z,1.02
2023-11-15T08:29:24.839Z,0.90
2023-11-15T08:31:52.082Z,1.00
2023-11-15T08:34:23.890Z,0.90
2023-11-15T08:36:52.064Z,1.17
2023-11-15T08:39:19.073Z,1.15
2023-11-15T08:41:48.242Z,1.10
2023-11-15T08:44:19.248Z,1.05
2023-11-15T08:46:47.159Z,1.20
2023-11-15T08:49:17.555Z,1.63
2023-11-15T08:51:52.042Z,0.90
2023-11-15T08:54:19.589Z,1.25
2023-11-15T08:56:47.058Z,1.25
2023-11-15T08:59:17.231Z,1.77
2023-11-15T09:01:46.040Z,1.30
2023-11-15T09:04:17.892Z,1.00
2023-11-15T09:06:49.325Z,1.05
2023-11-15T09:09:17.420Z,1.20
2023-11-15T09:11:45.068Z,2.50
2023-11-15T09:14:12.338Z,2.58
2023-11-15T09:16:39.333Z,2.20
2023-11-15T09:19:06.687Z,2.00
2023-11-15T09:21:38.405Z,1.40
2023-11-15T09:24:06.794Z,1.67
2023-11-15T09:26:34.122Z,2.08
2023-11-15T09:29:01.235Z,2.17
2023-11-15T09:31:28.332Z,1.77
2023-11-15T09:33:55.480Z,1.65
2023-11-15T09:36:22.606Z,1.50
2023-11-15T09:38:49.739Z,1.83
2023-11-15T09:41:18.978Z,1.45
2023-11-15T09:43:56.401Z,1.75
2023-11-15T09:46:24.272Z,1.23
2023-11-15T09:48:59.885Z,1.35
2023-11-15T09:51:35.625Z,1.05
2023-11-15T09:54:12.975Z,1.30
2023-11-15T09:56:51.156Z,1.40
2023-11-15T09:59:19.494Z,1.42
2023-11-15T10:01:50.644Z,1.10
2023-11-15T10:04:26.066Z,1.05
2023-11-15T10:06:57.370Z,1.52
2023-11-15T10:09:41.483Z,1.58
2023-11-15T10:12:09.661Z,1.50
2023-11-15T10:14:55.720Z,1.55
2023-11-15T10:17:39.886Z,1.15
2023-11-15T10:20:30.022Z,1.58
2023-11-15T10:22:58.820Z,1.20
2023-11-15T10:25:28.696Z,1.13
2023-11-15T10:28:11.115Z,1.42
2023-11-15T10:30:39.563Z,1.90
2023-11-15T10:33:15.778Z,2.15
2023-11-15T10:35:44.445Z,1.77
2023-11-15T10:38:21.594Z,2.47
2023-11-15T10:40:50.892Z,2.20
2023-11-15T10:43:20.848Z,1.58
2023-11-15T10:45:51.631Z,2.25
2023-11-15T10:48:23.740Z,1.80
2023-11-15T10:50:56.865Z,1.52
2023-11-15T10:53:25.379Z,2.15
2023-11-15T10:55:53.654Z,2.08
2023-11-15T10:58:23.697Z,2.10
2023-11-15T11:00:55.799Z,1.55
2023-11-15T11:03:25.858Z,1.45
2023-11-15T11:06:00.780Z,1.80
2023-11-15T11:09:12.958Z,1.58
2023-11-15T11:11:48.126Z,1.60
2023-11-15T11:14:17.310Z,1.50
2023-11-15T11:16:48.662Z,1.10
2023-11-15T11:19:23.809Z,1.08
2023-11-15T11:22:07.172Z,1.10
2023-11-15T11:25:08.324Z,1.10
2023-11-15T11:27:38.090Z,1.00
2023-11-15T11:30:15.820Z,0.80
2023-11-15T11:32:46.140Z,1.10
2023-11-15T11:35:21.908Z,1.13
2023-11-15T11:37:57.302Z,1.10
2023-11-15T11:40:25.386Z,1.08
2023-11-15T11:42:54.055Z,1.92
2023-11-15T11:45:24.729Z,1.00
2023-11-15T11:47:52.429Z,1.10
2023-11-15T11:50:24.572Z,1.00
2023-11-15T11:52:55.644Z,0.90
2023-11-15T11:55:23.416Z,0.90
2023-11-15T11:57:54.041Z,1.13
2023-11-15T12:00:23.659Z,0.80
2023-11-15T12:03:00.956Z,0.82
2023-11-15T12:05:33.672Z,0.90
2023-11-15T12:08:04.060Z,0.80
2023-11-15T12:10:31.311Z,0.70
2023-11-15T12:13:08.494Z,0.60
2023-11-15T12:15:40.102Z,0.60
2023-11-15T12:18:09.039Z,0.60
2023-11-15T12:20:40.967Z,0.60
2023-11-15T12:23:12.259Z,0.80
2023-11-15T12:25:54.278Z,0.88
2023-11-15T12:28:32.402Z,0.73
2023-11-15T12:31:04.785Z,1.05
2023-11-15T12:33:35.384Z,0.40
2023-11-15T12:36:04.681Z,0.55
2023-11-15T12:38:31.752Z,0.70
2023-11-15T12:41:06.737Z,0.63
2023-11-15T12:43:35.056Z,0.73
2023-11-15T12:46:16.253Z,0.60
2023-11-15T12:48:46.719Z,0.50
2023-11-15T12:51:13.752Z,0.30
2023-11-15T12:53:42.778Z,0.65
2023-11-15T12:56:20.863Z,0.60
2023-11-15T12:58:49.286Z,0.47
2023-11-15T13:01:18.178Z,0.50
2023-11-15T13:03:46.912Z,0.70
2023-11-15T13:06:18.800Z,0.50
2023-11-15T13:08:49.687Z,0.70
2023-11-15T13:11:20.337Z,0.80
2023-11-15T13:13:49.673Z,0.57
2023-11-15T13:16:21.651Z,0.57
2023-11-15T13:18:50.359Z,0.63
2023-11-15T13:21:19.892Z,1.00
2023-11-15T13:23:49.142Z,0.98
2023-11-15T13:26:16.850Z,0.98
2023-11-15T13:28:45.931Z,1.02
2023-11-15T13:31:16.357Z,0.80
2023-11-15T13:33:49.673Z,1.23
2023-11-15T13:36:21.845Z,1.25
2023-11-15T13:38:50.130Z,1.25
2023-11-15T13:41:29.739Z,1.10
2023-11-15T13:43:57.306Z,0.90
2023-11-15T13:46:25.093Z,1.15
2023-11-15T13:48:54.514Z,0.80
2023-11-15T13:51:23.429Z,1.00
2023-11-15T13:53:51.024Z,0.98
2023-11-15T13:56:18.282Z,1.00
2023-11-15T13:58:45.271Z,0.50
2023-11-15T14:01:12.638Z,0.60
2023-11-15T14:03:40.410Z,0.60
2023-11-15T14:06:08.620Z,0.93
2023-11-15T14:08:51.881Z,0.93
2023-11-15T14:11:27.745Z,0.93
2023-11-15T14:13:54.731Z,0.85
2023-11-15T14:16:22.301Z,1.10
2023-11-15T14:18:51.366Z,0.80
2023-11-15T14:21:18.716Z,0.70
2023-11-15T14:23:45.868Z,0.80
2023-11-15T14:26:15.539Z,1.05
2023-11-15T14:28:44.719Z,0.80
2023-11-15T14:31:12.346Z,1.10
2023-11-15T14:33:39.981Z,0.63
2023-11-15T14:36:08.626Z,0.95
2023-11-15T14:38:36.987Z,1.02
2023-11-15T14:41:07.391Z,0.80
2023-11-15T14:43:35.054Z,0.88
2023-11-15T14:46:02.685Z,1.05
2023-11-15T14:48:31.594Z,0.75
2023-11-15T14:50:59.236Z,0.98
2023-11-15T14:53:26.290Z,1.90
2023-11-15T14:55:53.423Z,1.00
2023-11-15T14:58:20.360Z,0.93
2023-11-15T15:00:47.921Z,1.10
2023-11-15T15:03:16.434Z,1.00
2023-11-15T15:05:43.637Z,0.80
2023-11-15T15:08:13.133Z,0.90
2023-11-15T15:10:40.422Z,0.95
2023-11-15T15:13:11.269Z,0.60
2023-11-15T15:15:39.841Z,0.70
2023-11-15T15:18:13.248Z,0.68
2023-11-15T15:20:45.213Z,0.40
2023-11-15T15:23:13.819Z,0.50
2023-11-15T15:25:42.275Z,0.70
2023-11-15T15:28:10.614Z,0.50
2023-11-15T15:30:38.423Z,0.70
2023-11-15T15:33:08.838Z,0.57
2023-11-15T15:35:36.313Z,0.60
2023-11-15T15:38:04.172Z,0.60
2023-11-15T15:40:36.620Z,0.60
2023-11-15T15:43:05.020Z,0.50
2023-11-15T15:45:32.262Z,0.40
2023-11-15T15:48:02.690Z,0.68
2023-11-15T15:50:29.822Z,0.70
2023-11-15T15:52:57.038Z,0.50
2023-11-15T15:55:24.054Z,0.52
2023-11-15T15:57:51.358Z,0.60
2023-11-15T16:00:19.042Z,0.50
2023-11-15T16:02:48.136Z,0.95
2023-11-15T16:05:17.736Z,1.70
2023-11-15T16:07:45.437Z,0.45
2023-11-15T16:10:12.702Z,0.70
2023-11-15T16:12:40.132Z,0.57
2023-11-15T16:15:08.596Z,0.40
2023-11-15T16:17:36.106Z,0.52
2023-11-15T16:20:08.772Z,0.70
2023-11-15T16:22:36.118Z,0.50
2023-11-15T16:25:04.446Z,0.50
2023-11-15T16:27:36.706Z,0.75
2023-11-15T16:30:15.214Z,0.60
2023-11-15T16:32:43.569Z,0.80
2023-11-15T16:35:10.931Z,0.57
2023-11-15T16:37:40.812Z,0.60
2023-11-15T16:40:11.558Z,0.70
2023-11-15T16:42:39.945Z,0.85
2023-11-15T16:45:08.655Z,0.70
2023-11-15T16:47:37.363Z,0.95
2023-11-15T16:50:05.381Z,1.50
2023-11-15T16:52:34.473Z,1.10
2023-11-15T16:55:06.740Z,0.77
2023-11-15T16:57:34.081Z,1.23
2023-11-15T17:00:01.477Z,1.10
2023-11-15T17:02:28.777Z,1.42
2023-11-15T17:04:55.737Z,1.40
2023-11-15T17:07:23.122Z,1.00
2023-11-15T17:09:52.675Z,0.93
2023-11-15T17:12:20.261Z,0.90
2023-11-15T17:14:47.437Z,0.88
2023-11-15T17:17:16.861Z,0.77
2023-11-15T17:19:45.796Z,0.85
2023-11-15T17:22:15.065Z,1.05
2023-11-15T17:24:42.565Z,1.30
2023-11-15T17:27:09.869Z,1.23
2023-11-15T17:29:37.239Z,1.40
2023-11-15T17:32:04.873Z,1.40
2023-11-15T17:34:32.726Z,1.52
2023-11-15T17:37:00.110Z,1.50
2023-11-15T17:39:28.427Z,1.80
2023-11-15T17:41:57.279Z,1.90
2023-11-15T17:44:24.593Z,1.33
2023-11-15T17:46:51.875Z,1.50
2023-11-15T17:49:18.975Z,2.13
2023-11-15T17:51:46.716Z,1.50
2023-11-15T17:54:16.034Z,1.50
2023-11-15T17:56:43.732Z,1.90
2023-11-15T17:59:10.690Z,1.77
2023-11-15T18:01:40.012Z,2.00
2023-11-15T18:04:16.160Z,2.05
2023-11-15T18:06:44.290Z,2.75
2023-11-15T18:09:11.758Z,1.90
2023-11-15T18:11:39.354Z,3.30
2023-11-15T18:14:07.456Z,2.40
2023-11-15T18:16:34.654Z,2.08
2023-11-15T18:19:10.007Z,1.90
2023-11-15T18:21:38.533Z,1.95
2023-11-15T18:24:06.504Z,1.77
2023-11-15T18:26:34.395Z,1.88
2023-11-15T18:29:01.740Z,1.60
2023-11-15T18:31:29.692Z,1.85
2023-11-15T18:33:59.156Z,2.40
2023-11-15T18:36:26.597Z,1.70
2023-11-15T18:38:53.857Z,4.07
2023-11-15T18:41:21.398Z,2.55
2023-11-15T18:43:50.292Z,2.63
2023-11-15T18:46:17.716Z,2.30
2023-11-15T18:48:44.984Z,2.50
2023-11-15T18:51:12.887Z,2.92
2023-11-15T18:53:40.639Z,2.78
2023-11-15T18:56:08.290Z,2.70
2023-11-15T18:58:36.950Z,2.80
2023-11-15T19:01:04.393Z,2.22
2023-11-15T19:03:31.718Z,2.00
2023-11-15T19:05:58.932Z,2.30
2023-11-15T19:08:25.989Z,2.25
2023-11-15T19:10:55.639Z,1.70
2023-11-15T19:13:23.091Z,1.92
2023-11-15T19:15:51.865Z,3.47
2023-11-15T19:18:20.527Z,3.13
2023-11-15T19:20:48.554Z,2.78
2023-11-15T19:23:17.875Z,2.85
2023-11-15T19:25:46.888Z,2.75
2023-11-15T19:28:16.850Z,3.42
2023-11-15T19:30:50.427Z,3.20
2023-11-15T19:33:18.398Z,3.33
2023-11-15T19:35:47.178Z,2.90
2023-11-15T19:38:14.276Z,2.95
2023-11-15T19:40:41.488Z,4.60
2023-11-15T19:43:10.485Z,4.65
2023-11-15T19:45:37.998Z,8.85
2023-11-15T19:48:06.569Z,5.82
2023-11-15T19:50:35.352Z,5.63
2023-11-15T19:53:04.686Z,8.85
2023-11-15T19:55:32.377Z,7.45
2023-11-15T19:57:59.501Z,6.35
2023-11-15T20:00:26.740Z,4.05
2023-11-15T20:02:53.981Z,3.45
2023-11-15T20:05:21.373Z,2.47
2023-11-15T20:07:48.479Z,3.70
2023-11-15T20:10:15.486Z,3.50
2023-11-15T20:12:44.481Z,3.05
2023-11-15T20:15:12.307Z,3.58
2023-11-15T20:17:39.735Z,3.13
2023-11-15T20:20:08.485Z,2.60
2023-11-15T20:22:45.312Z,2.80
2023-11-15T20:25:19.226Z,3.13
2023-11-15T20:27:46.326Z,2.97
2023-11-15T20:30:14.679Z,2.75
2023-11-15T20:32:41.904Z,2.75
2023-11-15T20:35:09.509Z,3.30
2023-11-15T20:37:36.632Z,2.92
2023-11-15T20:40:06.588Z,2.83
2023-11-15T20:42:33.939Z,2.38
2023-11-15T20:45:01.733Z,2.60
2023-11-15T20:47:28.937Z,3.03
2023-11-15T20:49:56.111Z,2.65
2023-11-15T20:52:23.152Z,3.05
2023-11-15T20:54:50.144Z,2.95
2023-11-15T20:57:18.199Z,2.88
2023-11-15T20:59:45.280Z,2.70
2023-11-15T21:02:12.519Z,3.88
2023-11-15T21:04:41.039Z,2.53
2023-11-15T21:07:08.515Z,2.70
2023-11-15T21:09:39.914Z,2.53
2023-11-15T21:12:07.469Z,2.40
2023-11-15T21:14:34.691Z,2.45
2023-11-15T21:17:01.997Z,2.28
2023-11-15T21:19:29.207Z,2.38
2023-11-15T21:21:56.316Z,2.50
2023-11-15T21:24:23.636Z,2.50
2023-11-15T21:26:55.849Z,2.33
2023-11-15T21:29:23.944Z,2.20
2023-11-15T21:31:54.799Z,2.08
2023-11-15T21:34:22.010Z,2.33
2023-11-15T21:36:49.056Z,2.50
2023-11-15T21:39:16.204Z,2.97
2023-11-15T21:41:43.386Z,2.45
2023-11-15T21:44:10.505Z,2.17
2023-11-15T21:46:38.637Z,2.22
2023-11-15T21:49:05.937Z,3.10
2023-11-15T21:51:33.188Z,2.65
2023-11-15T21:54:01.864Z,2.25
2023-11-15T21:56:28.952Z,2.20
2023-11-15T21:58:56.047Z,2.13
2023-11-15T22:01:25.506Z,3.63
2023-11-15T22:03:52.966Z,2.08
2023-11-15T22:06:20.240Z,2.20
2023-11-15T22:08:48.120Z,2.20
2023-11-15T22:11:15.115Z,2.45
2023-11-15T22:13:42.187Z,2.63
2023-11-15T22:16:09.470Z,2.47
2023-11-15T22:18:40.570Z,2.28
2023-11-15T22:21:09.250Z,2.50
2023-11-15T22:23:36.363Z,2.20
2023-11-15T22:26:03.965Z,1.95
2023-11-15T22:28:32.046Z,3.67
2023-11-15T22:30:59.234Z,5.30
2023-11-15T22:33:26.308Z,3.63
2023-11-15T22:35:53.289Z,2.33
2023-11-15T22:38:20.257Z,2.47
2023-11-15T22:40:47.678Z,1.90
2023-11-15T22:43:14.597Z,2.50
2023-11-15T22:45:42.990Z,5.15
2023-11-15T22:48:10.107Z,4.03
2023-11-15T22:50:37.223Z,3.78
2023-11-15T22:53:04.211Z,2.60
2023-11-15T22:55:31.257Z,2.33
2023-11-15T22:57:58.187Z,2.60
2023-11-15T23:00:35.105Z,2.65
2023-11-15T23:03:15.542Z,4.63
2023-11-15T23:05:44.214Z,3.53
2023-11-15T23:08:15.796Z,2.10
2023-11-15T23:10:45.518Z,2.33
2023-11-15T23:13:12.464Z,3.10
2023-11-15T23:15:39.601Z,3.00
2023-11-15T23:18:06.896Z,2.65
2023-11-15T23:20:41.500Z,2.63
2023-11-15T23:23:09.072Z,2.53
2023-11-15T23:25:36.101Z,2.50
2023-11-15T23:28:05.397Z,1.83
2023-11-15T23:30:36.093Z,2.70
2023-11-15T23:33:03.482Z,2.20
2023-11-15T23:35:30.526Z,2.20
2023-11-15T23:38:00.182Z,2.40
2023-11-15T23:40:28.591Z,2.50
2023-11-15T23:42:56.045Z,2.13
2023-11-15T23:45:24.178Z,2.25
2023-11-15T23:47:52.273Z,2.20
2023-11-15T23:50:20.311Z,2.58
2023-11-15T23:52:54.434Z,2.38
2023-11-15T23:55:22.442Z,2.28
2023-11-15T23:57:49.713Z,2.22
